カンポ・グランデ の空港の天気 - METARとTAF

カンポ・グランデ国際空港 ( SBCG / CGR ) - ブラジル マットグロッソ・ド・スル州カンポ・グランデ
飛行場実況気象(Metar)
観測時間01/16 15:00 AMST (01/16 18:00 UTC)
風向・風速西 6m/s
視程10km以上
天気現象
全天の4割程度の雲 雲底高度 1370m
少しの雲 雲底高度 1520m
気温33℃
湿度53%
気圧1013hPa
METARSBCG 161800Z 28012KT 9999 SCT045 FEW050TCU 33/22 Q1013
過去の天気等 Google飛行場航空写真 Wunderground天気予報

過去48時間のMETAR

飛行場予報(TAF)
発表時間: 1/16 13:00 AMST (1/16 16:00 UTC)
予報対象時間: 16日15時 AMST ~ 17日15時 AMST
風向・風速北北西 5m/s
視程10km以上
全天の4割程度の雲 雲底高度 1370m
16日15時 AMST ~ 16日19時 AMST に一時的に
天気現象周辺でしゅう雨
全天の4割程度の雲 雲底高度 1370m
少しの塔状積雲 雲底高度 1520m
16日20時 AMST ~ 16日22時 AMST に徐々に
風向・風速北 3m/s
視程10km以上
なし
17日7時 AMST ~ 17日9時 AMST に徐々に
風向・風速北北西 5m/s
17日10時 AMST ~ 17日12時 AMST に徐々に
視程10km以上
少しの雲 雲底高度 1370m
17日13時 AMST から 確率 30% で
天気現象周辺でしゅう雨
全天の4割程度の雲 雲底高度 1370m
少しの塔状積雲 雲底高度 1520m
TAF SBCG 161600Z 1618/1718 33010KT 9999 SCT045 TX34/1618Z TN23/1709Z
TEMPO 1618/1622 VCSH SCT045 FEW050TCU
BECMG 1623/1701 01005KT CAVOK
BECMG 1710/1712 33010KT
BECMG 1713/1715 9999 FEW045
PROB30 1716/1718 VCSH SCT045 FEW050TCU RMK PGH